Timişoara, România

01:48 AM EET on ianuarie 22, 2017 (GMT +0200)
Dumbravita | | Change Station

Elev 305 ft 45.80 °N, 21.24 °E | Updated 1 second ago

Cer parţial noros
Cer parţial noros
16.3 °F
Feels Like 16 °F
N
0.0
Vânt variabil Vânt from ENE
Gusts 0.0 mph

astăzi
High -- | Low -- °F
--% Chance of Precip.
Ieri
High -- | Low -- °F
Precip. -- inch
Presiunea 30.54 inch
Vizibilitatea 0.9 mile
Nori Nori risipiţi 200 ft
Vânt rece 16 °F
Punctul de rouă 13 °F
Umiditatea 85%
Precipitaţii 0.00 inch
Adâncimea zăpezii Not available.
8:06 AM 5:25 PM
Semilună în descreştere, 31% visible
METAR LRTR 212330Z 10003KT 1500 BR SCT002 M07/M09 Q1034
Presiunea 30.54 inch
Vizibilitatea 0.9 mile
Nori Nori risipiţi 200 ft
Vânt rece 16 °F
Punctul de rouă 13 °F
Umiditatea 85%
Precipitaţii 0.00 inch
Adâncimea zăpezii Not available.
8:06 AM 5:25 PM
Semilună în descreştere, 31% visible
METAR LRTR 212330Z 10003KT 1500 BR SCT002 M07/M09 Q1034

Get Your Daily Forecast Email!

Thanks for signing up!

Be on the lookout for a verification email in your inbox.

You'll start receiving the daily forecast at 8 AM.

×

10-Day Weather Forecast

×

Almanac

Astronomie

Jan. 22, 2017 Răsărit Apus
Timpul Actual
Crepusculul Civil
Crepusculul nautic
Răsărit Astronomic
Luna
Durata zilei lumină
Lungimea zilei
Tomorrow will be .
, % of the Moon is Illuminated

Extremele de azi

Country Highs Country Lows

Community

WunderPhotos

Upload Photos

1,962,540 photos uploaded!

WunderBlog® & News

Nearby

Calitatea aerului

  Calitatea aerului Index de calitate a aerului Poluat
Not available.

Adâncimea zapezii

Station Depth Elevation

Earthquake Activity

Oraş Distance Mag. Time & Date
Minimum magnitude displayed is 2.5.

Coastal Water Temperatures

Locul Temperatura

Stations

Nearby Weather Stations

Locaţia staţiei Temp Vânt rece Punctul de rouă Umiditatea Vânt Precip. Elev Actualizare Type